createdAt,value
2023-01-02T00:01:24.125Z,100824.59
2023-01-02T00:03:51.918Z,100832.81
2023-01-02T00:06:19.731Z,100828.75
2023-01-02T00:08:48.874Z,100830.66
2023-01-02T00:11:16.680Z,100825.66
2023-01-02T00:13:44.576Z,100821.47
2023-01-02T00:16:12.374Z,100832.41
2023-01-02T00:18:40.253Z,100827.19
2023-01-02T00:21:08.534Z,100833.34
2023-01-02T00:23:36.862Z,100839.38
2023-01-02T00:26:06.259Z,100850.78
2023-01-02T00:28:34.671Z,100849.47
2023-01-02T00:31:07.677Z,100839.81
2023-01-02T00:33:36.030Z,100837.84
2023-01-02T00:36:06.482Z,100840.00
2023-01-02T00:38:38.009Z,100841.81
2023-01-02T00:41:08.419Z,100834.91
2023-01-02T00:43:36.175Z,100842.84
2023-01-02T00:46:10.840Z,100842.50
2023-01-02T00:48:39.583Z,100840.28
2023-01-02T00:51:07.424Z,100842.31
2023-01-02T00:53:35.199Z,100851.56
2023-01-02T00:56:02.982Z,100843.84
2023-01-02T00:58:32.114Z,100851.34
2023-01-02T01:00:59.941Z,100842.88
2023-01-02T01:03:27.958Z,100843.72
2023-01-02T01:05:55.666Z,100837.97
2023-01-02T01:08:23.418Z,100841.66
2023-01-02T01:10:51.740Z,100841.81
2023-01-02T01:13:19.529Z,100854.78
2023-01-02T01:15:48.671Z,100860.84
2023-01-02T01:18:16.863Z,100869.38
2023-01-02T01:20:44.737Z,100863.69
2023-01-02T01:23:12.455Z,100878.16
2023-01-02T01:25:40.232Z,100881.91
2023-01-02T01:28:08.042Z,100882.03
2023-01-02T01:30:35.861Z,100883.94
2023-01-02T01:33:05.063Z,100880.28
2023-01-02T01:35:34.392Z,100887.47
2023-01-02T01:38:02.118Z,100885.94
2023-01-02T01:40:29.959Z,100889.81
2023-01-02T01:43:00.833Z,100890.13
2023-01-02T01:45:29.109Z,100880.38
2023-01-02T01:48:01.525Z,100880.66
2023-01-02T01:50:34.337Z,100883.25
2023-01-02T01:53:07.891Z,100885.22
2023-01-02T01:55:39.989Z,100881.59
2023-01-02T01:58:10.259Z,100889.53
2023-01-02T02:00:38.537Z,100879.88
2023-01-02T02:03:10.250Z,100887.56
2023-01-02T02:05:40.535Z,100880.72
2023-01-02T02:08:16.790Z,100882.38
2023-01-02T02:10:45.324Z,100891.25
2023-01-02T02:13:13.662Z,100896.84
2023-01-02T02:15:49.729Z,100905.53
2023-01-02T02:18:30.374Z,100901.81
2023-01-02T02:21:05.913Z,100907.16
2023-01-02T02:24:04.461Z,100917.28
2023-01-02T02:26:59.839Z,100920.72
2023-01-02T02:30:03.459Z,100926.06
2023-01-02T02:32:43.701Z,100925.91
2023-01-02T02:35:23.096Z,100923.97
2023-01-02T02:37:57.406Z,100923.75
2023-01-02T02:40:38.616Z,100932.47
2023-01-02T02:43:15.830Z,100938.38
2023-01-02T02:45:53.792Z,100941.66
2023-01-02T02:48:27.775Z,100945.28
2023-01-02T02:51:02.136Z,100953.00
2023-01-02T02:53:37.022Z,100952.16
2023-01-02T02:56:08.732Z,100964.31
2023-01-02T02:58:37.348Z,100966.19
2023-01-02T03:01:09.258Z,100969.66
2023-01-02T03:03:37.104Z,100971.16
2023-01-02T03:06:15.808Z,100971.00
2023-01-02T03:08:52.313Z,100971.75
2023-01-02T03:11:23.551Z,100973.25
2023-01-02T03:14:00.633Z,100965.72
2023-01-02T03:16:37.050Z,100969.66
2023-01-02T03:19:08.537Z,100961.59
2023-01-02T03:21:39.947Z,100960.25
2023-01-02T03:24:10.410Z,100971.38
2023-01-02T03:26:42.134Z,100982.84
2023-01-02T03:29:14.219Z,100983.81
2023-01-02T03:31:47.542Z,100983.53
2023-01-02T03:34:19.119Z,101005.19
2023-01-02T03:36:51.043Z,101004.09
2023-01-02T03:39:21.782Z,101002.66
2023-01-02T03:41:56.650Z,100996.09
2023-01-02T03:44:27.945Z,100998.28
2023-01-02T03:47:05.974Z,101002.84
2023-01-02T03:49:37.703Z,101003.47
2023-01-02T03:52:05.865Z,100993.47
2023-01-02T03:54:34.009Z,100994.25
2023-01-02T03:57:09.818Z,100984.91
2023-01-02T03:59:46.771Z,100988.69
2023-01-02T04:02:25.870Z,100992.13
2023-01-02T04:04:56.614Z,101005.34
2023-01-02T04:07:29.925Z,101006.06
2023-01-02T04:10:00.201Z,101009.09
2023-01-02T04:12:31.874Z,101009.59
2023-01-02T04:15:01.898Z,101013.03
2023-01-02T04:17:36.144Z,101019.50
2023-01-02T04:20:08.035Z,101008.50
2023-01-02T04:22:41.331Z,101025.97
2023-01-02T04:25:13.564Z,101028.84
2023-01-02T04:27:49.916Z,101021.84
2023-01-02T04:30:17.752Z,101022.41
2023-01-02T04:32:48.544Z,101033.50
2023-01-02T04:35:19.620Z,101037.72
2023-01-02T04:37:48.075Z,101039.00
2023-01-02T04:40:21.108Z,101036.56
2023-01-02T04:42:48.908Z,101033.81
2023-01-02T04:45:16.856Z,101036.78
2023-01-02T04:47:46.159Z,101052.72
2023-01-02T04:50:14.873Z,101062.81
2023-01-02T04:52:42.866Z,101071.00
2023-01-02T04:55:11.612Z,101088.44
2023-01-02T04:57:40.068Z,101082.13
2023-01-02T05:00:09.602Z,101087.66
2023-01-02T05:02:38.118Z,101084.94
2023-01-02T05:05:09.529Z,101062.81
2023-01-02T05:07:38.187Z,101057.09
2023-01-02T05:10:06.728Z,101055.56
2023-01-02T05:12:35.219Z,101066.44
2023-01-02T05:15:03.129Z,101070.66
2023-01-02T05:17:34.787Z,101073.41
2023-01-02T05:20:02.581Z,101084.66
2023-01-02T05:23:03.935Z,101079.88
2023-01-02T05:25:34.463Z,101087.22
2023-01-02T05:28:03.815Z,101069.91
2023-01-02T05:30:31.527Z,101060.81
2023-01-02T05:32:59.296Z,101043.78
2023-01-02T05:35:32.138Z,101068.06
2023-01-02T05:38:01.697Z,101088.50
2023-01-02T05:40:29.824Z,101100.53
2023-01-02T05:42:58.704Z,101099.84
2023-01-02T05:45:26.879Z,101105.69
2023-01-02T05:47:54.629Z,101102.81
2023-01-02T05:50:22.365Z,101094.63
2023-01-02T05:52:50.199Z,101087.41
2023-01-02T05:55:19.284Z,101087.97
2023-01-02T05:57:47.067Z,101104.59
2023-01-02T06:00:15.818Z,101126.00
2023-01-02T06:02:47.935Z,101131.19
2023-01-02T06:05:16.738Z,101140.53
2023-01-02T06:07:44.574Z,101138.78
2023-01-02T06:10:12.722Z,101137.91
2023-01-02T06:12:41.878Z,101127.00
2023-01-02T06:15:10.555Z,101122.47
2023-01-02T06:17:38.311Z,101132.66
2023-01-02T06:20:07.470Z,101153.31
2023-01-02T06:22:35.185Z,101153.94
2023-01-02T06:25:02.989Z,101166.22
2023-01-02T06:27:32.860Z,101183.88
2023-01-02T06:30:02.080Z,101210.97
2023-01-02T06:32:30.757Z,101196.78
2023-01-02T06:34:58.561Z,101190.59
2023-01-02T06:37:26.299Z,101192.91
2023-01-02T06:39:54.106Z,101213.72
2023-01-02T06:42:21.992Z,101219.41
2023-01-02T06:44:49.765Z,101206.97
2023-01-02T06:47:18.967Z,101209.19
2023-01-02T06:49:46.732Z,101214.53
2023-01-02T06:52:14.479Z,101220.59
2023-01-02T06:54:42.274Z,101218.75
2023-01-02T06:57:10.066Z,101217.09
2023-01-02T06:59:37.840Z,101236.25
2023-01-02T07:02:06.129Z,101233.78
2023-01-02T07:04:35.331Z,101224.09
2023-01-02T07:07:03.097Z,101216.66
2023-01-02T07:09:31.400Z,101212.84
2023-01-02T07:11:59.383Z,101221.41
2023-01-02T07:14:27.196Z,101239.63
2023-01-02T07:16:55.013Z,101235.28
2023-01-02T07:19:22.877Z,101253.53
2023-01-02T07:21:52.054Z,101253.22
2023-01-02T07:24:19.842Z,101259.84
2023-01-02T07:26:47.581Z,101263.84
2023-01-02T07:29:15.361Z,101263.84
2023-01-02T07:31:43.167Z,101270.00
2023-01-02T07:34:10.959Z,101276.13
2023-01-02T07:36:38.739Z,101297.31
2023-01-02T07:39:07.969Z,101309.25
2023-01-02T07:41:36.043Z,101317.63
2023-01-02T07:44:03.830Z,101321.88
2023-01-02T07:46:31.766Z,101320.84
2023-01-02T07:49:00.015Z,101330.75
2023-01-02T07:51:27.896Z,101330.63
2023-01-02T07:53:56.081Z,101336.78
2023-01-02T07:56:25.853Z,101332.97
2023-01-02T07:58:53.637Z,101339.66
2023-01-02T08:01:21.798Z,101335.78
2023-01-02T08:03:49.819Z,101348.28
2023-01-02T08:06:19.121Z,101355.63
2023-01-02T08:08:47.275Z,101357.00
2023-01-02T08:11:17.062Z,101362.31
2023-01-02T08:13:47.033Z,101366.16
2023-01-02T08:16:16.424Z,101373.19
2023-01-02T08:18:44.839Z,101377.09
2023-01-02T08:21:12.703Z,101382.91
2023-01-02T08:23:40.701Z,101388.03
2023-01-02T08:26:10.139Z,101388.13
2023-01-02T08:28:39.258Z,101400.75
2023-01-02T08:31:12.113Z,101405.38
2023-01-02T08:33:40.313Z,101416.28
2023-01-02T08:36:09.332Z,101412.56
2023-01-02T08:38:37.131Z,101418.91
2023-01-02T08:41:05.269Z,101415.81
2023-01-02T08:43:34.388Z,101421.09
2023-01-02T08:46:04.558Z,101429.88
2023-01-02T08:48:34.110Z,101438.31
2023-01-02T08:51:02.267Z,101434.03
2023-01-02T08:53:30.075Z,101441.97
2023-01-02T08:56:19.383Z,101446.56
2023-01-02T08:58:52.869Z,101447.38
2023-01-02T09:01:21.302Z,101451.03
2023-01-02T09:03:51.101Z,101461.53
2023-01-02T09:06:22.055Z,101463.16
2023-01-02T09:08:52.250Z,101465.25
2023-01-02T09:11:23.056Z,101464.06
2023-01-02T09:13:50.827Z,101477.81
2023-01-02T09:16:18.852Z,101483.91
2023-01-02T09:18:46.639Z,101483.94
2023-01-02T09:21:15.726Z,101486.72
2023-01-02T09:23:43.508Z,101492.91
2023-01-02T09:26:13.730Z,101505.22
2023-01-02T09:28:41.959Z,101506.84
2023-01-02T09:31:12.865Z,101507.22
2023-01-02T09:33:41.198Z,101513.19
2023-01-02T09:36:10.842Z,101518.88
2023-01-02T09:38:40.381Z,101521.84
2023-01-02T09:41:14.117Z,101518.53
2023-01-02T09:43:47.580Z,101529.84
2023-01-02T09:46:21.698Z,101531.38
2023-01-02T09:48:49.322Z,101538.78
2023-01-02T09:51:17.092Z,101533.06
2023-01-02T09:53:46.434Z,101548.53
2023-01-02T09:56:23.057Z,101548.63
2023-01-02T09:58:57.155Z,101552.81
2023-01-02T10:01:33.440Z,101566.16
2023-01-02T10:04:13.840Z,101568.91
2023-01-02T10:06:48.498Z,101569.09
2023-01-02T10:09:27.711Z,101574.88
2023-01-02T10:12:04.576Z,101575.88
2023-01-02T10:14:44.240Z,101587.75
2023-01-02T10:17:15.259Z,101584.44
2023-01-02T10:19:49.568Z,101592.66
2023-01-02T10:22:21.688Z,101601.28
2023-01-02T10:25:00.371Z,101598.69
2023-01-02T10:27:34.584Z,101608.84
2023-01-02T10:30:07.814Z,101605.50
2023-01-02T10:32:36.707Z,101608.88
2023-01-02T10:35:24.379Z,101616.97
2023-01-02T10:37:53.879Z,101623.75
2023-01-02T10:40:24.096Z,101622.09
2023-01-02T10:42:59.870Z,101620.41
2023-01-02T10:45:28.339Z,101619.97
2023-01-02T10:47:56.139Z,101625.09
2023-01-02T10:50:28.248Z,101626.91
2023-01-02T10:53:07.596Z,101619.59
2023-01-02T10:55:40.620Z,101632.09
2023-01-02T10:58:17.568Z,101628.91
2023-01-02T11:00:45.448Z,101627.81
2023-01-02T11:03:17.647Z,101629.19
2023-01-02T11:05:49.071Z,101633.63
2023-01-02T11:08:19.734Z,101630.72
2023-01-02T11:10:50.125Z,101635.63
2023-01-02T11:13:20.228Z,101633.06
2023-01-02T11:15:53.686Z,101628.69
2023-01-02T11:18:25.606Z,101632.47
2023-01-02T11:20:57.006Z,101632.09
2023-01-02T11:23:27.322Z,101627.66
2023-01-02T11:25:56.618Z,101634.41
2023-01-02T11:28:28.185Z,101631.75
2023-01-02T11:31:01.710Z,101636.16
2023-01-02T11:33:32.744Z,101637.88
2023-01-02T11:36:15.057Z,101641.72
2023-01-02T11:38:45.380Z,101639.41
2023-01-02T11:41:49.107Z,101648.75
2023-01-02T11:44:21.294Z,101652.75
2023-01-02T11:46:49.723Z,101654.56
2023-01-02T11:49:21.584Z,101657.69
2023-01-02T11:51:55.881Z,101663.63
2023-01-02T11:54:28.143Z,101658.25
2023-01-02T11:57:01.155Z,101650.72
2023-01-02T11:59:34.868Z,101648.91
2023-01-02T12:02:12.740Z,101654.00
2023-01-02T12:04:40.581Z,101658.13
2023-01-02T12:07:30.234Z,101673.81
2023-01-02T12:10:06.415Z,101665.34
2023-01-02T12:12:49.467Z,101661.97
2023-01-02T12:15:40.298Z,101662.19
2023-01-02T12:18:20.002Z,101661.16
2023-01-02T12:20:56.507Z,101663.00
2023-01-02T12:23:42.382Z,101669.75
2023-01-02T12:26:13.302Z,101661.72
2023-01-02T12:29:02.469Z,101660.22
2023-01-02T12:31:58.860Z,101664.91
2023-01-02T12:34:43.323Z,101663.88
2023-01-02T12:37:27.607Z,101669.66
2023-01-02T12:40:24.327Z,101671.06
2023-01-02T12:43:08.306Z,101676.66
2023-01-02T12:45:43.608Z,101666.94
2023-01-02T12:48:28.510Z,101664.16
2023-01-02T12:51:11.497Z,101670.84
2023-01-02T12:54:18.770Z,101669.06
2023-01-02T12:56:51.203Z,101673.84
2023-01-02T12:59:40.807Z,101667.06
2023-01-02T13:02:20.479Z,101667.59
2023-01-02T13:04:52.791Z,101664.56
2023-01-02T13:07:29.114Z,101672.44
2023-01-02T13:09:58.680Z,101667.34
2023-01-02T13:12:29.509Z,101672.00
2023-01-02T13:15:00.310Z,101669.75
2023-01-02T13:17:57.966Z,101667.06
2023-01-02T13:20:35.572Z,101670.00
2023-01-02T13:23:12.697Z,101671.59
2023-01-02T13:25:46.748Z,101677.81
2023-01-02T13:28:15.799Z,101672.47
2023-01-02T13:31:11.260Z,101678.38
2023-01-02T13:33:48.175Z,101671.41
2023-01-02T13:36:22.159Z,101668.84
2023-01-02T13:38:54.500Z,101679.19
2023-01-02T13:41:23.043Z,101675.28
2023-01-02T13:43:54.687Z,101672.97
2023-01-02T13:47:01.430Z,101670.84
2023-01-02T13:49:21.007Z,101686.03
2023-01-02T13:51:48.928Z,101680.47
2023-01-02T13:54:20.874Z,101676.00
2023-01-02T13:57:18.418Z,101677.91
2023-01-02T13:59:58.252Z,101675.13
2023-01-02T14:02:26.218Z,101673.50
2023-01-02T14:04:55.439Z,101670.13
2023-01-02T14:07:43.685Z,101672.66
2023-01-02T14:10:44.975Z,101675.28
2023-01-02T14:13:22.197Z,101678.66
2023-01-02T14:16:28.615Z,101684.56
2023-01-02T14:19:05.712Z,101682.59
2023-01-02T14:21:37.636Z,101681.19
2023-01-02T14:24:17.176Z,101678.72
2023-01-02T14:26:53.484Z,101678.81
2023-01-02T14:29:22.615Z,101675.97
2023-01-02T14:31:58.197Z,101683.66
2023-01-02T14:34:27.197Z,101683.66
2023-01-02T14:36:58.619Z,101686.88
2023-01-02T14:39:30.378Z,101697.16
2023-01-02T14:42:31.056Z,101697.16
2023-01-02T14:45:04.275Z,101693.53
2023-01-02T14:47:38.111Z,101701.22
2023-01-02T14:50:12.441Z,101698.53
2023-01-02T14:52:45.850Z,101698.59
2023-01-02T14:55:15.885Z,101699.69
2023-01-02T14:57:48.525Z,101708.38
2023-01-02T15:00:24.812Z,101705.84
2023-01-02T15:02:59.272Z,101710.88
2023-01-02T15:05:36.627Z,101712.00
2023-01-02T15:08:12.587Z,101706.72
2023-01-02T15:10:56.181Z,101709.16
2023-01-02T15:13:26.159Z,101719.16
2023-01-02T15:15:57.848Z,101718.19
2023-01-02T15:18:29.156Z,101728.38
2023-01-02T15:21:03.859Z,101722.03
2023-01-02T15:23:33.070Z,101726.13
2023-01-02T15:26:33.950Z,101724.75
2023-01-02T15:28:56.559Z,101727.56
2023-01-02T15:31:24.509Z,101723.91
2023-01-02T15:33:54.201Z,101723.31
2023-01-02T15:36:34.615Z,101725.97
2023-01-02T15:39:14.415Z,101729.69
2023-01-02T15:41:45.137Z,101730.41
2023-01-02T15:44:31.352Z,101738.59
2023-01-02T15:47:00.070Z,101727.28
2023-01-02T15:49:28.107Z,101740.13
2023-01-02T15:51:57.480Z,101741.22
2023-01-02T15:54:27.159Z,101748.47
2023-01-02T15:56:54.946Z,101746.44
2023-01-02T15:59:26.749Z,101752.44
2023-01-02T16:01:54.736Z,101750.56
2023-01-02T16:04:27.827Z,101755.41
2023-01-02T16:06:57.029Z,101754.72
2023-01-02T16:09:28.403Z,101763.63
2023-01-02T16:11:58.993Z,101758.41
2023-01-02T16:14:34.704Z,101756.69
2023-01-02T16:17:05.705Z,101765.81
2023-01-02T16:19:37.069Z,101775.78
2023-01-02T16:22:17.264Z,101779.31
2023-01-02T16:24:57.888Z,101767.25
2023-01-02T16:27:28.062Z,101769.88
2023-01-02T16:29:56.188Z,101777.28
2023-01-02T16:32:30.206Z,101770.53
2023-01-02T16:35:03.186Z,101781.59
2023-01-02T16:37:36.533Z,101786.94
2023-01-02T16:40:19.043Z,101786.06
2023-01-02T16:43:08.711Z,101789.78
2023-01-02T16:45:39.730Z,101788.69
2023-01-02T16:48:11.649Z,101798.63
2023-01-02T16:50:43.349Z,101804.09
2023-01-02T16:53:17.094Z,101801.94
2023-01-02T16:55:44.930Z,101805.06
2023-01-02T16:58:14.098Z,101812.59
2023-01-02T17:00:43.757Z,101810.81
2023-01-02T17:03:16.513Z,101811.91
2023-01-02T17:05:47.811Z,101805.50
2023-01-02T17:08:30.919Z,101800.81
2023-01-02T17:10:59.041Z,101809.41
2023-01-02T17:13:28.322Z,101807.69
2023-01-02T17:15:56.689Z,101817.66
2023-01-02T17:18:24.940Z,101814.31
2023-01-02T17:20:53.153Z,101815.97
2023-01-02T17:23:21.167Z,101819.19
2023-01-02T17:25:49.065Z,101815.63
2023-01-02T17:28:17.062Z,101824.53
2023-01-02T17:30:48.915Z,101827.28
2023-01-02T17:33:17.155Z,101830.34
2023-01-02T17:35:46.240Z,101834.59
2023-01-02T17:38:14.219Z,101839.66
2023-01-02T17:40:42.020Z,101833.34
2023-01-02T17:43:09.742Z,101838.69
2023-01-02T17:45:37.537Z,101831.16
2023-01-02T17:48:11.609Z,101836.28
2023-01-02T17:50:40.959Z,101839.75
2023-01-02T17:53:09.141Z,101845.16
2023-01-02T17:55:36.952Z,101841.75
2023-01-02T17:58:04.860Z,101843.72
2023-01-02T18:00:32.682Z,101842.72
2023-01-02T18:03:00.450Z,101848.69
2023-01-02T18:05:29.602Z,101847.06
2023-01-02T18:07:57.368Z,101844.94
2023-01-02T18:10:32.640Z,101842.03
2023-01-02T18:13:01.193Z,101847.41
2023-01-02T18:15:29.216Z,101845.59
2023-01-02T18:17:58.470Z,101845.81
2023-01-02T18:20:26.188Z,101854.97
2023-01-02T18:22:55.422Z,101863.81
2023-01-02T18:25:25.549Z,101868.25
2023-01-02T18:27:57.354Z,101871.06
2023-01-02T18:30:26.868Z,101877.72
2023-01-02T18:33:05.411Z,101875.38
2023-01-02T18:38:35.167Z,101883.22
2023-01-02T18:41:12.434Z,101885.19
2023-01-02T18:43:41.606Z,101880.50
2023-01-02T18:46:15.983Z,101883.34
2023-01-02T18:48:43.823Z,101887.78
2023-01-02T18:51:19.259Z,101894.19
2023-01-02T18:53:50.372Z,101885.94
2023-01-02T18:56:20.603Z,101891.06
2023-01-02T18:58:56.977Z,101893.81
2023-01-02T19:01:28.008Z,101901.84
2023-01-02T19:04:20.488Z,101890.09
2023-01-02T19:06:54.044Z,101901.13
2023-01-02T19:09:30.509Z,101905.00
2023-01-02T19:12:19.104Z,101906.44
2023-01-02T19:14:46.961Z,101905.50
2023-01-02T19:17:24.004Z,101913.91
2023-01-02T19:19:52.121Z,101915.53
2023-01-02T19:22:23.297Z,101917.81
2023-01-02T19:24:52.741Z,101921.44
2023-01-02T19:27:24.661Z,101922.19
2023-01-02T19:29:53.273Z,101922.97
2023-01-02T19:32:28.410Z,101927.81
2023-01-02T19:34:58.037Z,101929.59
2023-01-02T19:37:35.572Z,101929.13
2023-01-02T19:40:13.124Z,101940.91
2023-01-02T19:42:46.265Z,101936.16
2023-01-02T19:45:16.287Z,101939.53
2023-01-02T19:47:44.231Z,101939.69
2023-01-02T19:50:15.735Z,101945.06
2023-01-02T19:52:43.885Z,101939.84
2023-01-02T19:55:14.049Z,101940.00
2023-01-02T19:57:42.140Z,101941.41
2023-01-02T20:00:13.250Z,101938.41
2023-01-02T20:02:42.152Z,101935.34
2023-01-02T20:05:10.237Z,101932.28
2023-01-02T20:07:38.263Z,101930.34
2023-01-02T20:10:06.796Z,101933.03
2023-01-02T20:12:40.408Z,101935.94
2023-01-02T20:15:10.744Z,101935.22
2023-01-02T20:17:39.774Z,101943.34
2023-01-02T20:20:10.124Z,101938.50
2023-01-02T20:22:37.985Z,101940.28
2023-01-02T20:25:06.639Z,101941.28
2023-01-02T20:27:35.734Z,101940.94
2023-01-02T20:30:04.147Z,101942.09
2023-01-02T20:32:31.965Z,101943.81
2023-01-02T20:35:00.016Z,101945.06
2023-01-02T20:37:27.972Z,101945.69
2023-01-02T20:39:55.887Z,101948.56
2023-01-02T20:42:24.028Z,101957.41
2023-01-02T20:44:53.181Z,101949.72
2023-01-02T20:47:21.094Z,101946.91
2023-01-02T20:49:48.877Z,101947.91
2023-01-02T20:52:18.959Z,101945.03
2023-01-02T20:54:46.722Z,101949.72
2023-01-02T20:57:14.690Z,101947.53
2023-01-02T20:59:44.507Z,101950.91
2023-01-02T21:02:13.834Z,101950.81
2023-01-02T21:04:41.617Z,101954.66
2023-01-02T21:07:09.458Z,101960.81
2023-01-02T21:09:37.271Z,101966.44
2023-01-02T21:12:25.021Z,101960.44
2023-01-02T21:14:52.713Z,101958.25
2023-01-02T21:17:21.827Z,101959.97
2023-01-02T21:19:49.550Z,101963.03
2023-01-02T21:22:17.513Z,101965.22
2023-01-02T21:24:45.260Z,101977.47
2023-01-02T21:27:13.520Z,101967.59
2023-01-02T21:29:42.036Z,101976.44
2023-01-02T21:32:09.777Z,101978.94
2023-01-02T21:34:38.897Z,101988.28
2023-01-02T21:37:06.611Z,101982.38
2023-01-02T21:39:34.405Z,101980.44
2023-01-02T21:42:17.309Z,101987.09
2023-01-02T21:44:47.107Z,101989.38
2023-01-02T21:47:15.128Z,101992.97
2023-01-02T21:49:44.415Z,101995.53
2023-01-02T21:52:12.400Z,101995.84
2023-01-02T21:54:40.482Z,101995.41
2023-01-02T21:57:08.380Z,102001.31
2023-01-02T21:59:36.196Z,101993.47
2023-01-02T22:02:06.450Z,101994.25
2023-01-02T22:04:34.758Z,101993.06
2023-01-02T22:07:30.751Z,101991.75
2023-01-02T22:09:52.212Z,101984.91
2023-01-02T22:12:19.964Z,101987.72
2023-01-02T22:14:47.699Z,101994.00
2023-01-02T22:17:15.436Z,102001.72
2023-01-02T22:19:43.197Z,101993.75
2023-01-02T22:22:12.594Z,102007.88
2023-01-02T22:24:44.470Z,101999.72
2023-01-02T22:27:14.647Z,101997.13
2023-01-02T22:30:19.474Z,102010.13
2023-01-02T22:32:33.523Z,102007.75
2023-01-02T22:35:03.578Z,102008.72
2023-01-02T22:37:32.835Z,102014.47
2023-01-02T22:40:01.799Z,102014.59
2023-01-02T22:43:00.151Z,102010.19
2023-01-02T22:45:32.780Z,102021.06
2023-01-02T22:48:04.356Z,102019.13
2023-01-02T22:50:46.029Z,102013.22
2023-01-02T22:53:27.552Z,102026.25
2023-01-02T22:55:55.835Z,102022.13
2023-01-02T22:58:24.485Z,102021.81
2023-01-02T23:00:58.558Z,102024.44
2023-01-02T23:03:29.203Z,102030.50
2023-01-02T23:05:57.006Z,102029.63
2023-01-02T23:08:26.509Z,102040.50
2023-01-02T23:10:54.295Z,102036.31
2023-01-02T23:13:22.079Z,102046.91
2023-01-02T23:16:03.774Z,102042.19
2023-01-02T23:18:56.213Z,102044.28
2023-01-02T23:21:25.280Z,102048.03
2023-01-02T23:23:54.856Z,102048.69
2023-01-02T23:26:25.358Z,102054.50
2023-01-02T23:29:09.974Z,102049.44
2023-01-02T23:31:39.708Z,102048.47
2023-01-02T23:34:07.827Z,102047.34
2023-01-02T23:36:35.651Z,102056.50
2023-01-02T23:39:05.381Z,102058.97
2023-01-02T23:41:34.470Z,102055.00
2023-01-02T23:44:02.352Z,102048.34
2023-01-02T23:46:30.286Z,102057.00
2023-01-02T23:48:59.252Z,102054.19
2023-01-02T23:51:27.047Z,102057.25
2023-01-02T23:53:54.787Z,102062.72
2023-01-02T23:56:26.090Z,102059.81
2023-01-02T23:58:55.892Z,102060.69
